Time;durP1;ratioP1;P1;durP2;ratioP2;P2;SDS_P1;SDS_P2;PMS_P1;PMS_P2;Temp;Humidity;BMP_temperature;BMP_pressure;BME280_temperature;BME280_humidity;BME280_pressure;Samples;Min_cycle;Max_cycle;Signal;HPM_P1;HPM_P2
2022/07/05 00:00:42;;;;;;;17.10;9.00;;;;;;;;;;5035298;28;20109;-62
2022/07/05 00:03:08;;;;;;;15.15;8.60;;;;;;;;;;5035129;28;20096;-64
2022/07/05 00:05:34;;;;;;;15.43;8.73;;;;;;;;;;5035205;28;20041;-63
2022/07/05 00:08:00;;;;;;;15.80;8.82;;;;;;;;;;5062320;23;20052;-61
2022/07/05 00:10:26;;;;;;;14.43;8.82;;;;;;;;;;5055748;28;20033;-61
2022/07/05 00:12:52;;;;;;;17.23;9.52;;;;;;;;;;5038186;28;20021;-63
2022/07/05 00:15:18;;;;;;;15.27;8.77;;;;;;;;;;5056169;28;20362;-63
2022/07/05 00:17:44;;;;;;;14.70;8.60;;;;;;;;;;5055210;28;20076;-62
2022/07/05 00:20:11;;;;;;;16.33;9.23;;;;;;;;;;5056085;28;20033;-62
2022/07/05 00:22:37;;;;;;;15.35;9.27;;;;;;;;;;5056792;28;20095;-61
2022/07/05 00:25:03;;;;;;;16.80;10.00;;;;;;;;;;5056206;28;20071;-62
2022/07/05 00:27:29;;;;;;;16.15;9.00;;;;;;;;;;5037259;28;20033;-60
2022/07/05 00:29:55;;;;;;;17.25;9.60;;;;;;;;;;5056601;28;20024;-61
2022/07/05 00:32:21;;;;;;;15.68;9.20;;;;;;;;;;5037657;28;20465;-60
2022/07/05 00:34:47;;;;;;;17.08;9.32;;;;;;;;;;5038042;28;20067;-61
2022/07/05 00:37:13;;;;;;;17.08;9.73;;;;;;;;;;5055055;28;20070;-61
2022/07/05 00:39:39;;;;;;;16.92;9.00;;;;;;;;;;5038417;28;20049;-61
2022/07/05 00:42:05;;;;;;;15.07;9.32;;;;;;;;;;5038660;28;20489;-60
2022/07/05 00:44:35;;;;;;;19.80;9.32;;;;;;;;;;5056301;28;20025;-61
2022/07/05 00:47:02;;;;;;;15.75;9.50;;;;;;;;;;5055682;28;20077;-62
2022/07/05 00:49:30;;;;;;;15.93;9.55;;;;;;;;;;5055136;28;20535;-62
2022/07/05 00:51:56;;;;;;;14.93;9.00;;;;;;;;;;5056311;28;20028;-61
2022/07/05 00:54:22;;;;;;;16.13;9.25;;;;;;;;;;5055810;28;20035;-61
2022/07/05 00:56:48;;;;;;;15.50;9.10;;;;;;;;;;5055880;28;20127;-61
2022/07/05 00:59:14;;;;;;;14.27;8.80;;;;;;;;;;5054506;28;20401;-63
2022/07/05 01:01:40;;;;;;;21.58;9.70;;;;;;;;;;5037175;28;20740;-61
2022/07/05 01:04:06;;;;;;;15.85;9.27;;;;;;;;;;5055010;28;20037;-61
2022/07/05 01:06:33;;;;;;;15.20;9.20;;;;;;;;;;5054873;28;20029;-61
2022/07/05 01:08:59;;;;;;;14.57;9.25;;;;;;;;;;5054028;28;20082;-61
2022/07/05 01:11:26;;;;;;;15.80;9.65;;;;;;;;;;5036302;28;20498;-61
2022/07/05 01:13:52;;;;;;;14.88;9.02;;;;;;;;;;5037162;28;20055;-62
2022/07/05 01:16:18;;;;;;;14.90;9.23;;;;;;;;;;5054601;28;20025;-62
2022/07/05 01:18:44;;;;;;;15.40;9.65;;;;;;;;;;5035741;28;20031;-60
2022/07/05 01:21:12;;;;;;;16.00;9.20;;;;;;;;;;5036970;28;20028;-62
2022/07/05 01:23:39;;;;;;;15.45;9.77;;;;;;;;;;5055283;28;20520;-61
2022/07/05 01:26:05;;;;;;;14.75;9.23;;;;;;;;;;5036839;28;20071;-61
2022/07/05 01:28:31;;;;;;;17.30;9.63;;;;;;;;;;5036174;28;20018;-61
2022/07/05 01:30:57;;;;;;;17.27;9.55;;;;;;;;;;5054785;28;20090;-61
2022/07/05 01:33:29;;;;;;;15.85;9.60;;;;;;;;;;5054592;28;20424;-61
2022/07/05 01:35:56;;;;;;;15.25;9.50;;;;;;;;;;5054351;28;20090;-61
2022/07/05 01:38:22;;;;;;;17.40;9.68;;;;;;;;;;5054057;28;20078;-62
2022/07/05 01:40:51;;;;;;;17.42;9.40;;;;;;;;;;5054857;28;20029;-61
2022/07/05 01:43:21;;;;;;;16.30;9.30;;;;;;;;;;5055234;28;20025;-60
2022/07/05 01:45:47;;;;;;;15.27;8.98;;;;;;;;;;5055426;28;20063;-61
2022/07/05 01:48:14;;;;;;;16.10;9.02;;;;;;;;;;5054088;28;20117;-62
2022/07/05 01:50:46;;;;;;;15.57;9.15;;;;;;;;;;5036288;28;20028;-62
2022/07/05 01:53:18;;;;;;;16.13;9.15;;;;;;;;;;5054710;28;20025;-62
2022/07/05 01:55:44;;;;;;;15.52;9.02;;;;;;;;;;5039351;28;20174;-62
2022/07/05 01:58:10;;;;;;;17.83;9.43;;;;;;;;;;5038352;28;20412;-63
2022/07/05 02:00:43;;;;;;;19.25;9.60;;;;;;;;;;5056035;28;20139;-63
2022/07/05 02:03:10;;;;;;;15.70;9.55;;;;;;;;;;5056643;28;20085;-62
2022/07/05 02:05:36;;;;;;;17.63;9.98;;;;;;;;;;5055399;28;20480;-62
2022/07/05 02:08:03;;;;;;;26.15;11.40;;;;;;;;;;5035475;28;20429;-61
2022/07/05 02:10:29;;;;;;;19.45;10.32;;;;;;;;;;5054436;28;20025;-61
2022/07/05 02:12:55;;;;;;;16.65;9.82;;;;;;;;;;5053557;28;20017;-62
2022/07/05 02:15:21;;;;;;;15.25;9.45;;;;;;;;;;5053225;28;20029;-61
2022/07/05 02:17:47;;;;;;;16.02;9.68;;;;;;;;;;5052482;28;20044;-62
2022/07/05 02:20:13;;;;;;;16.45;9.48;;;;;;;;;;5053515;28;20029;-62
2022/07/05 02:22:39;;;;;;;16.95;9.20;;;;;;;;;;5053383;28;20496;-62
2022/07/05 02:25:05;;;;;;;16.17;9.40;;;;;;;;;;5054850;28;20032;-63
2022/07/05 02:27:31;;;;;;;15.30;9.02;;;;;;;;;;5055638;28;20021;-63
2022/07/05 02:29:57;;;;;;;18.90;9.80;;;;;;;;;;5056590;28;20024;-63
2022/07/05 02:32:23;;;;;;;18.17;9.88;;;;;;;;;;5056193;28;20016;-62
2022/07/05 02:34:49;;;;;;;15.35;9.32;;;;;;;;;;5056344;28;20452;-62
2022/07/05 02:37:15;;;;;;;16.23;9.02;;;;;;;;;;5055068;28;20025;-62
2022/07/05 02:39:41;;;;;;;15.82;9.23;;;;;;;;;;5055971;28;20546;-63
2022/07/05 02:42:07;;;;;;;16.02;8.65;;;;;;;;;;5055984;28;20067;-62
2022/07/05 02:44:33;;;;;;;17.20;9.13;;;;;;;;;;5037968;28;20041;-63
2022/07/05 02:46:59;;;;;;;16.00;8.80;;;;;;;;;;5056495;28;20028;-62
2022/07/05 02:49:25;;;;;;;16.15;9.15;;;;;;;;;;5052348;28;20036;-62
2022/07/05 02:51:51;;;;;;;15.25;9.25;;;;;;;;;;5053156;28;20021;-60
2022/07/05 02:54:17;;;;;;;17.33;10.27;;;;;;;;;;5053193;28;20013;-62
2022/07/05 02:56:43;;;;;;;18.83;10.30;;;;;;;;;;5052940;28;20079;-62
2022/07/05 02:59:09;;;;;;;16.60;9.55;;;;;;;;;;5052442;28;20090;-63
2022/07/05 03:01:35;;;;;;;15.50;9.63;;;;;;;;;;5053278;28;20029;-62
2022/07/05 03:04:01;;;;;;;17.50;9.52;;;;;;;;;;5052908;28;20025;-63
2022/07/05 03:06:27;;;;;;;16.35;9.85;;;;;;;;;;5052261;28;20056;-63
2022/07/05 03:08:53;;;;;;;16.88;10.00;;;;;;;;;;5052016;28;20104;-62
2022/07/05 03:11:20;;;;;;;18.40;9.98;;;;;;;;;;5052432;28;20060;-62
2022/07/05 03:13:47;;;;;;;16.25;9.65;;;;;;;;;;5034600;28;20138;-60
2022/07/05 03:16:13;;;;;;;15.13;9.43;;;;;;;;;;5052368;28;20032;-60
2022/07/05 03:18:39;;;;;;;17.17;10.00;;;;;;;;;;5051493;28;20068;-62
2022/07/05 03:21:05;;;;;;;16.67;9.95;;;;;;;;;;5052556;28;20056;-62
2022/07/05 03:23:31;;;;;;;16.70;10.05;;;;;;;;;;5034310;28;20144;-62
2022/07/05 03:25:57;;;;;;;16.23;10.27;;;;;;;;;;5052210;28;20029;-62
2022/07/05 03:28:24;;;;;;;17.23;10.30;;;;;;;;;;5051178;28;20024;-61
2022/07/05 03:30:49;;;;;;;16.00;9.32;;;;;;;;;;5052057;28;20439;-61
2022/07/05 03:33:15;;;;;;;15.57;9.30;;;;;;;;;;5051560;28;20067;-62
2022/07/05 03:35:41;;;;;;;16.58;9.45;;;;;;;;;;5052241;28;20024;-62
2022/07/05 03:38:08;;;;;;;18.52;10.07;;;;;;;;;;5033252;28;20470;-62
2022/07/05 03:40:34;;;;;;;16.73;9.93;;;;;;;;;;5051917;28;20048;-62
2022/07/05 03:43:00;;;;;;;18.40;10.85;;;;;;;;;;5052055;28;20393;-62
2022/07/05 03:45:26;;;;;;;17.08;10.25;;;;;;;;;;5052164;28;20014;-61
2022/07/05 03:47:52;;;;;;;17.83;10.23;;;;;;;;;;5051427;28;20451;-62
2022/07/05 03:50:18;;;;;;;19.13;10.20;;;;;;;;;;5033925;28;20025;-61
2022/07/05 03:52:44;;;;;;;16.70;10.27;;;;;;;;;;5052111;28;20048;-61
2022/07/05 03:55:10;;;;;;;17.23;10.25;;;;;;;;;;5051894;28;20486;-62
2022/07/05 03:57:36;;;;;;;16.35;9.88;;;;;;;;;;5050981;28;20044;-62
2022/07/05 04:00:02;;;;;;;17.77;9.82;;;;;;;;;;5034099;28;20473;-61
2022/07/05 04:02:28;;;;;;;18.65;10.40;;;;;;;;;;5051745;28;20112;-61
2022/07/05 04:04:54;;;;;;;17.42;10.43;;;;;;;;;;5033881;28;20104;-61
2022/07/05 04:07:20;;;;;;;19.42;10.98;;;;;;;;;;5051308;28;20098;-63
2022/07/05 04:09:46;;;;;;;18.15;11.18;;;;;;;;;;5052062;28;20037;-61
2022/07/05 04:12:12;;;;;;;18.58;10.43;;;;;;;;;;5034208;28;20058;-62
2022/07/05 04:14:38;;;;;;;18.27;10.60;;;;;;;;;;5052055;28;20021;-62
2022/07/05 04:17:04;;;;;;;17.67;11.05;;;;;;;;;;5052096;28;20033;-61
2022/07/05 04:19:30;;;;;;;17.17;10.90;;;;;;;;;;5051522;28;20492;-63
2022/07/05 04:21:56;;;;;;;18.15;10.77;;;;;;;;;;5034113;28;20036;-61
2022/07/05 04:24:22;;;;;;;18.80;11.95;;;;;;;;;;5051677;28;20029;-62
2022/07/05 04:26:49;;;;;;;18.48;11.00;;;;;;;;;;5033643;28;20017;-62
2022/07/05 04:29:14;;;;;;;18.83;10.82;;;;;;;;;;5050665;28;20028;-62
2022/07/05 04:31:40;;;;;;;18.67;10.82;;;;;;;;;;5051503;28;20467;-61
2022/07/05 04:34:07;;;;;;;17.02;10.98;;;;;;;;;;5051579;28;20021;-60
2022/07/05 04:36:33;;;;;;;19.65;11.57;;;;;;;;;;5051624;28;20044;-61
2022/07/05 04:38:59;;;;;;;18.70;10.82;;;;;;;;;;5032992;28;20036;-61
2022/07/05 04:41:25;;;;;;;18.23;10.93;;;;;;;;;;5051281;28;20397;-61
2022/07/05 04:43:51;;;;;;;17.05;10.85;;;;;;;;;;5051312;28;20025;-63
2022/07/05 04:46:17;;;;;;;17.42;11.10;;;;;;;;;;5055072;28;20029;-61
2022/07/05 04:48:43;;;;;;;17.75;11.63;;;;;;;;;;5054387;28;20032;-61
2022/07/05 04:51:09;;;;;;;17.48;10.73;;;;;;;;;;5055514;28;20112;-61
2022/07/05 04:53:35;;;;;;;18.15;11.55;;;;;;;;;;5037285;28;20116;-61
2022/07/05 04:56:01;;;;;;;16.92;11.18;;;;;;;;;;5055030;28;20060;-61
2022/07/05 04:58:27;;;;;;;17.88;11.90;;;;;;;;;;5053985;28;20040;-61
2022/07/05 05:00:53;;;;;;;18.15;11.32;;;;;;;;;;5054952;28;20025;-61
2022/07/05 05:03:20;;;;;;;18.63;11.23;;;;;;;;;;5055298;28;20044;-61
2022/07/05 05:05:46;;;;;;;17.08;10.82;;;;;;;;;;5054975;28;20401;-63
2022/07/05 05:08:12;;;;;;;16.95;10.35;;;;;;;;;;5053815;28;20488;-62
2022/07/05 05:10:38;;;;;;;18.20;11.07;;;;;;;;;;5054660;28;20100;-60
2022/07/05 05:13:04;;;;;;;16.90;9.85;;;;;;;;;;5054784;28;20496;-62
2022/07/05 05:15:30;;;;;;;16.77;10.98;;;;;;;;;;5054781;28;20025;-62
2022/07/05 05:17:56;;;;;;;19.45;11.15;;;;;;;;;;5053651;28;20061;-62
2022/07/05 05:20:22;;;;;;;20.33;11.18;;;;;;;;;;5054488;28;20025;-62
2022/07/05 05:22:48;;;;;;;18.25;10.93;;;;;;;;;;5054428;28;20123;-62
2022/07/05 05:25:14;;;;;;;17.40;10.93;;;;;;;;;;5054389;28;20093;-63
2022/07/05 05:27:48;;;;;;;18.55;11.68;;;;;;;;;;5053467;28;20056;-62
2022/07/05 05:30:15;;;;;;;16.55;10.70;;;;;;;;;;5054390;28;20021;-62
2022/07/05 05:32:41;;;;;;;18.83;10.65;;;;;;;;;;5053966;28;20021;-61
2022/07/05 05:35:07;;;;;;;17.25;10.90;;;;;;;;;;5053982;28;20025;-62
2022/07/05 05:37:49;;;;;;;16.95;10.60;;;;;;;;;;5053031;28;20025;-62
2022/07/05 05:40:15;;;;;;;17.20;10.65;;;;;;;;;;5054417;28;20037;-64
2022/07/05 05:42:41;;;;;;;17.60;11.10;;;;;;;;;;5036385;28;20029;-62
2022/07/05 05:45:08;;;;;;;17.15;11.15;;;;;;;;;;5054280;28;20029;-61
2022/07/05 05:47:34;;;;;;;16.00;11.00;;;;;;;;;;5053498;28;20149;-61
2022/07/05 05:50:00;;;;;;;17.77;10.75;;;;;;;;;;5054326;28;20408;-62
2022/07/05 05:52:26;;;;;;;16.98;10.13;;;;;;;;;;5054842;28;20104;-63
2022/07/05 05:54:51;;;;;;;15.85;10.05;;;;;;;;;;5054946;28;20025;-62
2022/07/05 05:57:17;;;;;;;16.92;9.73;;;;;;;;;;5052475;28;20021;-61
2022/07/05 05:59:43;;;;;;;16.20;9.65;;;;;;;;;;5054029;28;20469;-61
2022/07/05 06:02:09;;;;;;;15.40;9.55;;;;;;;;;;5053915;28;20108;-63
2022/07/05 06:04:35;;;;;;;16.40;9.38;;;;;;;;;;5053920;28;20021;-62
2022/07/05 06:07:01;;;;;;;16.15;9.68;;;;;;;;;;5071794;22;20407;-62
2022/07/05 06:09:27;;;;;;;15.38;10.07;;;;;;;;;;5031324;28;20129;-63
2022/07/05 06:11:53;;;;;;;16.15;10.15;;;;;;;;;;5032731;28;20049;-64
2022/07/05 06:14:19;;;;;;;16.00;10.18;;;;;;;;;;5032565;28;20079;-65
2022/07/05 06:16:45;;;;;;;15.68;10.02;;;;;;;;;;5032471;28;20041;-63
2022/07/05 06:19:11;;;;;;;16.02;10.15;;;;;;;;;;5038289;28;20029;-64
2022/07/05 06:21:37;;;;;;;17.40;10.25;;;;;;;;;;5021560;28;20033;-63
2022/07/05 06:24:03;;;;;;;15.90;10.15;;;;;;;;;;5037602;28;20029;-62
2022/07/05 06:26:29;;;;;;;18.15;10.13;;;;;;;;;;5032598;28;20026;-64
2022/07/05 06:28:55;;;;;;;16.13;9.82;;;;;;;;;;5031714;28;20044;-63
2022/07/05 06:31:21;;;;;;;17.35;9.90;;;;;;;;;;5031973;28;20033;-64
2022/07/05 06:33:47;;;;;;;17.08;10.50;;;;;;;;;;5031573;28;20045;-65
2022/07/05 06:36:13;;;;;;;17.92;10.23;;;;;;;;;;5031672;28;20089;-65
2022/07/05 06:38:39;;;;;;;15.57;10.52;;;;;;;;;;5031081;28;20052;-63
2022/07/05 06:41:05;;;;;;;15.73;10.13;;;;;;;;;;5031491;28;20719;-62
2022/07/05 06:43:31;;;;;;;16.45;10.35;;;;;;;;;;5029293;28;20044;-63
2022/07/05 06:45:57;;;;;;;15.93;9.95;;;;;;;;;;5031031;28;20029;-64
2022/07/05 06:48:23;;;;;;;17.17;10.88;;;;;;;;;;5030399;28;20101;-63
2022/07/05 06:50:49;;;;;;;16.38;10.43;;;;;;;;;;5031647;28;20464;-64
2022/07/05 06:53:15;;;;;;;16.45;10.07;;;;;;;;;;5019079;28;20061;-64
2022/07/05 06:55:44;;;;;;;15.65;10.85;;;;;;;;;;5011721;28;20056;-64
2022/07/05 06:58:10;;;;;;;;;;;;;;;;;;5011312;28;20036;-62
2022/07/05 07:00:37;;;;;;;15.35;10.75;;;;;;;;;;5014048;28;19913;-66
2022/07/05 07:03:03;;;;;;;16.85;10.63;;;;;;;;;;5031163;28;20078;-64
2022/07/05 07:05:29;;;;;;;17.63;10.52;;;;;;;;;;5031004;28;20032;-64
2022/07/05 07:10:40;;;;;;;15.73;10.50;;;;;;;;;;5031481;28;20513;-63
2022/07/05 07:13:06;;;;;;;19.17;10.57;;;;;;;;;;5031072;28;20036;-61
2022/07/05 07:15:35;;;;;;;15.15;10.20;;;;;;;;;;5030064;28;20045;-65
2022/07/05 07:18:01;;;;;;;17.10;10.40;;;;;;;;;;5022799;28;20025;-65
2022/07/05 07:20:28;;;;;;;16.13;10.45;;;;;;;;;;5009359;28;20635;-65
2022/07/05 07:22:54;;;;;;;16.92;10.45;;;;;;;;;;5009668;28;20176;-63
2022/07/05 07:25:20;;;;;;;16.05;10.18;;;;;;;;;;5009482;28;20030;-66
2022/07/05 07:27:47;;;;;;;16.25;10.35;;;;;;;;;;5008902;28;20375;-64
2022/07/05 07:30:14;;;;;;;15.13;9.57;;;;;;;;;;4992934;28;20033;-66
2022/07/05 07:32:40;;;;;;;17.60;10.40;;;;;;;;;;5011229;28;20022;-64
2022/07/05 07:35:06;;;;;;;17.10;10.32;;;;;;;;;;5011163;28;20037;-64
2022/07/05 07:37:32;;;;;;;14.80;9.65;;;;;;;;;;5010031;28;20117;-64
2022/07/05 07:39:58;;;;;;;15.35;9.52;;;;;;;;;;5011028;28;20060;-65
2022/07/05 07:42:26;;;;;;;16.98;9.60;;;;;;;;;;5010840;28;20050;-65
2022/07/05 07:44:52;;;;;;;14.02;9.43;;;;;;;;;;5012380;28;20124;-65
2022/07/05 07:47:18;;;;;;;16.38;9.95;;;;;;;;;;5029525;28;20096;-66
2022/07/05 07:49:44;;;;;;;15.50;9.27;;;;;;;;;;5030421;28;20024;-65
2022/07/05 07:52:10;;;;;;;16.83;9.50;;;;;;;;;;5030375;28;20033;-63
2022/07/05 07:54:36;;;;;;;14.70;9.30;;;;;;;;;;5030439;28;20036;-64
2022/07/05 07:57:04;;;;;;;14.90;9.38;;;;;;;;;;5030237;28;20065;-63
2022/07/05 07:59:30;;;;;;;16.80;9.65;;;;;;;;;;5029673;28;20076;-65
2022/07/05 08:01:56;;;;;;;15.98;9.65;;;;;;;;;;5030218;28;20034;-63
2022/07/05 08:04:22;;;;;;;15.45;9.85;;;;;;;;;;5031139;28;20094;-63
2022/07/05 08:06:48;;;;;;;16.20;9.73;;;;;;;;;;5030193;28;20469;-62
2022/07/05 08:09:15;;;;;;;15.05;9.77;;;;;;;;;;5029907;28;20068;-60
2022/07/05 08:11:41;;;;;;;14.98;9.60;;;;;;;;;;5030348;28;20448;-62
2022/07/05 08:14:07;;;;;;;15.95;9.60;;;;;;;;;;5030449;28;20500;-63
2022/07/05 08:16:33;;;;;;;15.45;9.50;;;;;;;;;;5030150;28;20145;-60
2022/07/05 08:21:44;;;;;;;15.43;9.70;;;;;;;;;;5034769;28;20161;-65
2022/07/05 08:24:11;;;;;;;15.23;9.10;;;;;;;;;;5034116;28;20052;-64
2022/07/05 08:26:38;;;;;;;14.95;9.40;;;;;;;;;;5032724;28;20040;-63
2022/07/05 08:29:05;;;;;;;15.43;9.95;;;;;;;;;;5033593;28;20022;-63
2022/07/05 08:31:33;;;;;;;14.65;9.68;;;;;;;;;;5034168;28;20029;-63
2022/07/05 08:33:59;;;;;;;15.05;9.90;;;;;;;;;;5033734;28;20026;-63
2022/07/05 08:36:25;;;;;;;15.38;9.82;;;;;;;;;;5032674;28;20103;-63
2022/07/05 08:38:51;;;;;;;16.20;10.32;;;;;;;;;;5033097;28;20428;-66
2022/07/05 08:41:21;;;;;;;15.15;9.32;;;;;;;;;;5034167;28;20032;-66
2022/07/05 08:43:48;;;;;;;14.52;9.15;;;;;;;;;;5032624;28;20037;-66
2022/07/05 08:46:15;;;;;;;14.43;9.60;;;;;;;;;;5033833;28;20021;-63
2022/07/05 08:48:47;;;;;;;16.13;10.23;;;;;;;;;;5032963;28;20053;-67
2022/07/05 08:51:17;;;;;;;14.05;9.40;;;;;;;;;;5034370;28;20028;-67
2022/07/05 08:53:44;;;;;;;15.77;9.80;;;;;;;;;;5016212;28;20017;-66
2022/07/05 08:56:11;;;;;;;15.15;9.60;;;;;;;;;;4683775;28;10000215;-62
2022/07/05 08:58:37;;;;;;;14.98;9.25;;;;;;;;;;5029765;28;20029;-63
2022/07/05 09:01:04;;;;;;;16.45;9.90;;;;;;;;;;5012865;28;20021;-63
2022/07/05 09:03:43;;;;;;;15.48;9.80;;;;;;;;;;5030139;28;20021;-65
2022/07/05 09:06:10;;;;;;;15.63;9.90;;;;;;;;;;5030425;28;20075;-63
2022/07/05 09:08:40;;;;;;;16.45;9.82;;;;;;;;;;5028753;28;20037;-63
2022/07/05 09:11:15;;;;;;;16.92;10.38;;;;;;;;;;5029963;28;20035;-64
2022/07/05 09:13:43;;;;;;;15.38;10.23;;;;;;;;;;5029956;28;20025;-60
2022/07/05 09:16:09;;;;;;;14.77;10.27;;;;;;;;;;5030214;28;20033;-61
2022/07/05 09:18:38;;;;;;;16.35;10.10;;;;;;;;;;5029626;28;20269;-59
2022/07/05 09:21:17;;;;;;;14.52;10.18;;;;;;;;;;5029827;28;20026;-60
2022/07/05 09:23:43;;;;;;;15.18;9.93;;;;;;;;;;5029423;28;20554;-61
2022/07/05 09:26:09;;;;;;;15.65;10.30;;;;;;;;;;5012667;28;20041;-62
2022/07/05 09:28:36;;;;;;;15.55;10.52;;;;;;;;;;5009124;28;20037;-62
2022/07/05 09:31:02;;;;;;;16.40;10.45;;;;;;;;;;5008779;28;20030;-60
2022/07/05 09:33:28;;;;;;;16.55;10.15;;;;;;;;;;5009310;28;20037;-62
2022/07/05 09:35:58;;;;;;;14.57;10.40;;;;;;;;;;5009663;28;20022;-61
2022/07/05 09:38:25;;;;;;;17.25;11.10;;;;;;;;;;5009169;28;20036;-62
2022/07/05 09:40:58;;;;;;;21.40;10.43;;;;;;;;;;5009683;28;20029;-60
2022/07/05 09:43:25;;;;;;;18.35;10.13;;;;;;;;;;5009098;28;20026;-62
2022/07/05 09:45:53;;;;;;;16.10;10.20;;;;;;;;;;5016829;28;20411;-60
2022/07/05 09:48:19;;;;;;;15.70;10.80;;;;;;;;;;5028975;28;20034;-61
2022/07/05 09:50:45;;;;;;;15.20;10.15;;;;;;;;;;5029567;28;20283;-62
2022/07/05 09:53:14;;;;;;;15.88;10.32;;;;;;;;;;5029438;28;20049;-60
2022/07/05 09:55:40;;;;;;;18.58;11.82;;;;;;;;;;5028022;28;20060;-59
2022/07/05 09:58:07;;;;;;;15.00;10.02;;;;;;;;;;5028367;28;20485;-60
2022/07/05 10:00:33;;;;;;;15.55;10.40;;;;;;;;;;5029205;28;20039;-65
2022/07/05 10:03:02;;;;;;;15.73;10.50;;;;;;;;;;5029130;28;20677;-61
2022/07/05 10:05:31;;;;;;;17.38;11.30;;;;;;;;;;5029464;28;20145;-61
2022/07/05 10:07:58;;;;;;;15.75;10.43;;;;;;;;;;5025605;28;20038;-60
2022/07/05 10:10:28;;;;;;;17.80;10.07;;;;;;;;;;5028614;28;20029;-60
2022/07/05 10:12:58;;;;;;;15.00;10.18;;;;;;;;;;5028618;28;20029;-56
2022/07/05 10:15:25;;;;;;;15.82;9.60;;;;;;;;;;5010865;28;20022;-62
2022/07/05 10:17:54;;;;;;;14.57;9.70;;;;;;;;;;5009890;28;20025;-62
2022/07/05 10:20:33;;;;;;;17.40;10.60;;;;;;;;;;5028014;28;20033;-62
2022/07/05 10:23:02;;;;;;;16.00;10.45;;;;;;;;;;5028393;28;20021;-61
2022/07/05 10:25:28;;;;;;;17.08;10.95;;;;;;;;;;5028597;28;20379;-58
2022/07/05 10:27:55;;;;;;;16.45;10.50;;;;;;;;;;5027526;28;20030;-61
2022/07/05 10:30:23;;;;;;;19.65;10.95;;;;;;;;;;5027025;28;20033;-62
2022/07/05 10:32:49;;;;;;;17.73;10.27;;;;;;;;;;5022162;28;20088;-57
2022/07/05 10:35:17;;;;;;;15.10;9.80;;;;;;;;;;5028531;28;20037;-56
2022/07/05 10:37:43;;;;;;;15.17;9.83;;;;;;;;;;5027568;28;20445;-59
2022/07/05 10:40:09;;;;;;;15.65;9.90;;;;;;;;;;5028089;28;20280;-62
2022/07/05 10:42:38;;;;;;;16.67;9.80;;;;;;;;;;5027821;28;20034;-58
2022/07/05 10:45:04;;;;;;;;;;;;;;;;;;5028356;28;20076;-59
2022/07/05 10:47:30;;;;;;;15.80;10.70;;;;;;;;;;5027326;28;20355;-65
2022/07/05 10:50:04;;;;;;;15.77;10.18;;;;;;;;;;5028474;28;20048;-62
2022/07/05 10:52:30;;;;;;;16.30;11.02;;;;;;;;;;5027688;28;20033;-64
2022/07/05 10:55:14;;;;;;;15.90;10.70;;;;;;;;;;5028121;28;20035;-60
2022/07/05 10:57:40;;;;;;;16.65;10.45;;;;;;;;;;5008629;28;20037;-63
2022/07/05 11:00:07;;;;;;;15.35;10.57;;;;;;;;;;5027882;28;20095;-64
2022/07/05 11:02:33;;;;;;;17.60;10.75;;;;;;;;;;5027836;28;20041;-61
2022/07/05 11:05:00;;;;;;;15.88;10.68;;;;;;;;;;5027577;28;20026;-60
2022/07/05 11:07:44;;;;;;;16.27;11.27;;;;;;;;;;5027107;28;20036;-58
2022/07/05 11:10:13;;;;;;;16.35;11.13;;;;;;;;;;5027596;28;20032;-60
2022/07/05 11:12:39;;;;;;;15.15;10.35;;;;;;;;;;5028144;28;20086;-61
2022/07/05 11:15:07;;;;;;;15.68;10.40;;;;;;;;;;5030953;28;20041;-66
2022/07/05 11:17:35;;;;;;;15.48;10.20;;;;;;;;;;5032585;28;20136;-64
2022/07/05 11:20:04;;;;;;;14.98;10.10;;;;;;;;;;5015478;28;20037;-65
2022/07/05 11:22:30;;;;;;;15.68;10.38;;;;;;;;;;5017568;28;20056;-64
2022/07/05 11:24:57;;;;;;;17.85;10.65;;;;;;;;;;5036469;28;20454;-64
2022/07/05 11:27:26;;;;;;;17.58;10.57;;;;;;;;;;5037022;28;20098;-66
2022/07/05 11:29:52;;;;;;;16.60;10.60;;;;;;;;;;5037949;28;20390;-66
2022/07/05 11:32:21;;;;;;;17.92;11.43;;;;;;;;;;5037667;28;20024;-64
2022/07/05 11:35:07;;;;;;;18.13;10.57;;;;;;;;;;5038261;28;20052;-64
2022/07/05 11:37:38;;;;;;;16.60;10.48;;;;;;;;;;5035799;28;20026;-65
2022/07/05 11:40:09;;;;;;;18.13;10.73;;;;;;;;;;5039877;28;20116;-64
2022/07/05 11:42:37;;;;;;;16.35;10.52;;;;;;;;;;5021983;28;20037;-64
2022/07/05 11:45:03;;;;;;;14.97;10.50;;;;;;;;;;5020374;28;20037;-64
2022/07/05 11:47:29;;;;;;;15.50;10.50;;;;;;;;;;5037250;28;20025;-64
2022/07/05 11:49:56;;;;;;;16.42;10.60;;;;;;;;;;5038351;28;20030;-64
2022/07/05 11:52:26;;;;;;;16.85;11.13;;;;;;;;;;5038695;28;20053;-65
2022/07/05 11:54:52;;;;;;;17.27;10.85;;;;;;;;;;5036659;28;20396;-66
2022/07/05 11:57:19;;;;;;;15.60;11.10;;;;;;;;;;5036936;28;20137;-65
2022/07/05 11:59:45;;;;;;;15.48;11.27;;;;;;;;;;5037642;28;20051;-65
2022/07/05 12:02:11;;;;;;;15.02;10.80;;;;;;;;;;5037600;28;20026;-65
2022/07/05 12:04:38;;;;;;;15.50;10.50;;;;;;;;;;5036787;28;20033;-65
2022/07/05 12:07:04;;;;;;;15.65;11.00;;;;;;;;;;5061474;23;20037;-59
2022/07/05 12:15:08;;;;;;;15.10;11.02;;;;;;;;;;5052296;28;20110;-59
2022/07/05 12:17:34;;;;;;;18.30;12.00;;;;;;;;;;5055675;28;20032;-59
2022/07/05 12:20:01;;;;;;;15.80;11.20;;;;;;;;;;5072235;28;20060;-59
2022/07/05 12:22:30;;;;;;;15.05;11.57;;;;;;;;;;5072445;28;20036;-59
2022/07/05 12:24:58;;;;;;;15.23;11.65;;;;;;;;;;5072058;28;20059;-59
2022/07/05 12:27:24;;;;;;;15.73;11.95;;;;;;;;;;5053592;28;20107;-60
2022/07/05 12:29:50;;;;;;;15.63;11.60;;;;;;;;;;5072617;28;20078;-59
2022/07/05 12:32:16;;;;;;;15.90;11.70;;;;;;;;;;5053750;28;20031;-57
2022/07/05 12:34:42;;;;;;;16.33;11.40;;;;;;;;;;5054465;28;20024;-59
2022/07/05 12:37:08;;;;;;;15.48;11.88;;;;;;;;;;5072596;28;20031;-60
2022/07/05 12:39:34;;;;;;;16.70;11.85;;;;;;;;;;5071722;28;20029;-56
2022/07/05 12:42:00;;;;;;;16.17;11.60;;;;;;;;;;5073824;28;20034;-59
2022/07/05 12:44:26;;;;;;;16.98;11.77;;;;;;;;;;5072407;28;20036;-62
2022/07/05 12:47:04;;;;;;;16.52;11.77;;;;;;;;;;5087269;28;20039;-61
2022/07/05 12:49:30;;;;;;;15.63;12.00;;;;;;;;;;5073440;28;20031;-61
2022/07/05 12:52:03;;;;;;;15.32;11.95;;;;;;;;;;5092593;28;20202;-58
2022/07/05 13:00:03;;;;;;;16.98;12.02;;;;;;;;;;5091981;28;20485;-62
2022/07/05 13:02:43;;;;;;;15.52;11.93;;;;;;;;;;5090984;28;20020;-59
2022/07/05 13:05:09;;;;;;;15.57;11.80;;;;;;;;;;5092644;28;20051;-59
2022/07/05 13:07:45;;;;;;;16.50;11.60;;;;;;;;;;5076026;28;20032;-61
2022/07/05 13:10:15;;;;;;;16.25;11.90;;;;;;;;;;5095447;28;20021;-60
2022/07/05 13:12:41;;;;;;;24.27;12.20;;;;;;;;;;5095855;28;20024;-60
2022/07/05 13:15:07;;;;;;;17.70;11.90;;;;;;;;;;5077256;28;20426;-61
2022/07/05 13:17:33;;;;;;;17.95;11.15;;;;;;;;;;5093349;28;20043;-59
2022/07/05 13:20:01;;;;;;;18.33;11.50;;;;;;;;;;4380408;28;10000735;-60
2022/07/05 13:22:27;;;;;;;16.23;11.02;;;;;;;;;;5051932;28;20025;-55
2022/07/05 13:24:54;;;;;;;16.90;11.20;;;;;;;;;;5053520;28;20024;-59
2022/07/05 13:27:20;;;;;;;16.75;11.30;;;;;;;;;;5053986;28;20067;-60
2022/07/05 13:29:48;;;;;;;16.83;10.27;;;;;;;;;;5061746;28;20021;-63
2022/07/05 13:32:17;;;;;;;15.48;10.60;;;;;;;;;;5055714;28;20033;-61
2022/07/05 13:34:45;;;;;;;16.00;10.45;;;;;;;;;;5054546;28;20388;-59
2022/07/05 13:37:11;;;;;;;14.95;10.35;;;;;;;;;;5053637;28;20025;-58
2022/07/05 13:39:39;;;;;;;16.15;10.73;;;;;;;;;;5052126;28;20032;-61
2022/07/05 13:42:05;;;;;;;;;;;;;;;;;;5054225;28;20032;-54
2022/07/05 13:44:32;;;;;;;15.02;10.40;;;;;;;;;;5054090;28;20386;-63
2022/07/05 13:46:58;;;;;;;16.08;11.32;;;;;;;;;;5086532;28;20035;-62
2022/07/05 13:49:24;;;;;;;17.15;11.40;;;;;;;;;;5093485;28;20387;-62
2022/07/05 13:51:50;;;;;;;16.38;11.38;;;;;;;;;;5094377;28;20407;-65
2022/07/05 13:54:16;;;;;;;14.85;10.45;;;;;;;;;;5093794;28;20020;-60
2022/07/05 13:56:42;;;;;;;15.13;10.63;;;;;;;;;;5092323;28;20021;-60
2022/07/05 13:59:08;;;;;;;17.08;11.10;;;;;;;;;;5077686;28;20029;-60
2022/07/05 14:01:34;;;;;;;15.15;10.80;;;;;;;;;;5055859;28;20032;-61
2022/07/05 14:04:04;;;;;;;15.32;10.55;;;;;;;;;;5055851;28;20028;-59
2022/07/05 14:06:30;;;;;;;16.15;11.00;;;;;;;;;;5055998;28;20024;-61
2022/07/05 14:08:57;;;;;;;16.13;11.35;;;;;;;;;;5073182;28;20029;-61
2022/07/05 14:11:26;;;;;;;17.13;11.07;;;;;;;;;;5055976;28;20099;-61
2022/07/05 14:13:52;;;;;;;17.25;10.82;;;;;;;;;;5055787;28;20028;-62
2022/07/05 14:16:18;;;;;;;17.60;11.30;;;;;;;;;;5055310;28;20206;-62
2022/07/05 14:18:44;;;;;;;15.20;10.85;;;;;;;;;;5072185;28;20060;-60
2022/07/05 14:21:14;;;;;;;16.70;10.70;;;;;;;;;;5073379;28;20400;-60
2022/07/05 14:23:41;;;;;;;15.30;11.00;;;;;;;;;;5073959;28;20373;-62
2022/07/05 14:26:08;;;;;;;16.02;11.25;;;;;;;;;;5073287;28;20024;-60
2022/07/05 14:28:37;;;;;;;14.95;10.85;;;;;;;;;;5069162;28;20044;-60
2022/07/05 14:31:03;;;;;;;15.18;10.50;;;;;;;;;;5073143;28;20024;-60
2022/07/05 14:33:29;;;;;;;15.90;10.80;;;;;;;;;;5073338;28;20025;-59
2022/07/05 14:35:55;;;;;;;15.90;10.90;;;;;;;;;;5073443;28;20496;-60
2022/07/05 14:38:21;;;;;;;15.82;10.68;;;;;;;;;;5072762;28;20112;-61